Terminal Aerodrome Forecast
Issued by NWS

Home | Current Version | Previous Version | Text Only | Print | Product List | Glossary On
Versions: 1 2 3 4 5 6 7 8 9 10 11 12 13 14 15 16 17 18 19
000
FTAK31 PANC 241134
TAFADL
TAF
PADL 241134Z 2412/2512 36005KT P6SM SCT070
     FM242200 06008KT P6SM BKN060
     FM250300 05008G18KT P6SM VCSH BKN050
      AMD LTD TO CLD VIS AND WIND TIL 241600=

USA.gov is the U.S. government's official web portal to all federal, state and local government web resources and services.